sensor_id;sensor_type;location;lat;lon;timestamp;pressure;altitude;pressure_sealevel;temperature;humidity
62150;BME280;48134;53.586;10.610;2023-08-30T00:01:06;100178.19;;;12.67;100.00
62150;BME280;48134;53.586;10.610;2023-08-30T00:03:35;100178.66;;;12.69;100.00
62150;BME280;48134;53.586;10.610;2023-08-30T00:06:04;100183.31;;;12.68;100.00
62150;BME280;48134;53.586;10.610;2023-08-30T00:08:32;100182.00;;;12.66;100.00
62150;BME280;48134;53.586;10.610;2023-08-30T00:11:05;100176.66;;;12.61;100.00
62150;BME280;48134;53.586;10.610;2023-08-30T00:13:40;100176.34;;;12.62;100.00
62150;BME280;48134;53.586;10.610;2023-08-30T00:16:14;100175.56;;;12.62;100.00
62150;BME280;48134;53.586;10.610;2023-08-30T00:18:48;100184.84;;;12.61;100.00
62150;BME280;48134;53.586;10.610;2023-08-30T00:21:17;100186.25;;;12.58;100.00
62150;BME280;48134;53.586;10.610;2023-08-30T00:23:50;100180.63;;;12.54;100.00
62150;BME280;48134;53.586;10.610;2023-08-30T00:26:23;100189.13;;;12.53;100.00
62150;BME280;48134;53.586;10.610;2023-08-30T00:28:58;100186.78;;;12.46;100.00
62150;BME280;48134;53.586;10.610;2023-08-30T00:31:26;100187.41;;;12.43;100.00
62150;BME280;48134;53.586;10.610;2023-08-30T00:33:59;100195.91;;;12.41;100.00
62150;BME280;48134;53.586;10.610;2023-08-30T00:36:27;100190.22;;;12.38;100.00
62150;BME280;48134;53.586;10.610;2023-08-30T00:38:55;100187.28;;;12.34;100.00
62150;BME280;48134;53.586;10.610;2023-08-30T00:41:24;100183.25;;;12.32;100.00
62150;BME280;48134;53.586;10.610;2023-08-30T00:43:58;100188.22;;;12.30;100.00
62150;BME280;48134;53.586;10.610;2023-08-30T00:46:26;100184.78;;;12.24;100.00
62150;BME280;48134;53.586;10.610;2023-08-30T00:49:00;100184.25;;;12.22;100.00
62150;BME280;48134;53.586;10.610;2023-08-30T00:51:34;100175.59;;;12.20;100.00
62150;BME280;48134;53.586;10.610;2023-08-30T00:54:07;100183.06;;;12.14;100.00
62150;BME280;48134;53.586;10.610;2023-08-30T00:56:41;100183.94;;;12.10;100.00
62150;BME280;48134;53.586;10.610;2023-08-30T00:59:15;100180.13;;;12.11;100.00
62150;BME280;48134;53.586;10.610;2023-08-30T01:01:48;100184.97;;;12.14;100.00
62150;BME280;48134;53.586;10.610;2023-08-30T01:04:22;100177.09;;;12.12;100.00
62150;BME280;48134;53.586;10.610;2023-08-30T01:06:50;100179.63;;;12.08;100.00
62150;BME280;48134;53.586;10.610;2023-08-30T01:09:24;100170.44;;;12.04;100.00
62150;BME280;48134;53.586;10.610;2023-08-30T01:12:02;100166.16;;;11.98;100.00
62150;BME280;48134;53.586;10.610;2023-08-30T01:14:43;100162.69;;;11.93;100.00
62150;BME280;48134;53.586;10.610;2023-08-30T01:17:18;100160.28;;;11.91;100.00
62150;BME280;48134;53.586;10.610;2023-08-30T01:19:57;100156.75;;;11.90;100.00
62150;BME280;48134;53.586;10.610;2023-08-30T01:22:35;100158.66;;;11.90;100.00
62150;BME280;48134;53.586;10.610;2023-08-30T01:25:27;100149.69;;;11.89;100.00
62150;BME280;48134;53.586;10.610;2023-08-30T01:28:04;100150.47;;;11.90;100.00
62150;BME280;48134;53.586;10.610;2023-08-30T01:30:40;100139.69;;;11.85;100.00
62150;BME280;48134;53.586;10.610;2023-08-30T01:33:16;100138.75;;;11.76;100.00
62150;BME280;48134;53.586;10.610;2023-08-30T01:35:53;100142.91;;;11.73;100.00
62150;BME280;48134;53.586;10.610;2023-08-30T01:38:22;100138.63;;;11.67;100.00
62150;BME280;48134;53.586;10.610;2023-08-30T01:40:58;100138.22;;;11.60;100.00
62150;BME280;48134;53.586;10.610;2023-08-30T01:43:33;100134.69;;;11.59;100.00
62150;BME280;48134;53.586;10.610;2023-08-30T01:46:08;100139.03;;;11.60;100.00
62150;BME280;48134;53.586;10.610;2023-08-30T01:48:44;100141.31;;;11.53;100.00
62150;BME280;48134;53.586;10.610;2023-08-30T01:51:19;100142.53;;;11.47;100.00
62150;BME280;48134;53.586;10.610;2023-08-30T01:53:49;100142.84;;;11.45;100.00
62150;BME280;48134;53.586;10.610;2023-08-30T01:56:17;100144.97;;;11.48;100.00
62150;BME280;48134;53.586;10.610;2023-08-30T01:58:47;100140.31;;;11.49;100.00
62150;BME280;48134;53.586;10.610;2023-08-30T02:01:20;100134.06;;;11.48;100.00
62150;BME280;48134;53.586;10.610;2023-08-30T02:03:48;100134.75;;;11.40;100.00
62150;BME280;48134;53.586;10.610;2023-08-30T02:06:25;100126.06;;;11.38;100.00
62150;BME280;48134;53.586;10.610;2023-08-30T02:08:57;100132.63;;;11.37;100.00
62150;BME280;48134;53.586;10.610;2023-08-30T02:11:35;100128.28;;;11.36;100.00
62150;BME280;48134;53.586;10.610;2023-08-30T02:14:12;100129.59;;;11.38;100.00
62150;BME280;48134;53.586;10.610;2023-08-30T02:16:49;100133.94;;;11.39;100.00
62150;BME280;48134;53.586;10.610;2023-08-30T02:19:24;100128.19;;;11.41;100.00
62150;BME280;48134;53.586;10.610;2023-08-30T02:21:57;100120.31;;;11.39;100.00
62150;BME280;48134;53.586;10.610;2023-08-30T02:24:30;100130.63;;;11.43;100.00
62150;BME280;48134;53.586;10.610;2023-08-30T02:26:58;100128.38;;;11.45;100.00
62150;BME280;48134;53.586;10.610;2023-08-30T02:29:34;100122.75;;;11.41;100.00
62150;BME280;48134;53.586;10.610;2023-08-30T02:32:07;100137.16;;;11.42;100.00
62150;BME280;48134;53.586;10.610;2023-08-30T02:34:41;100130.09;;;11.40;100.00
62150;BME280;48134;53.586;10.610;2023-08-30T02:37:14;100129.91;;;11.37;100.00
62150;BME280;48134;53.586;10.610;2023-08-30T02:39:42;100135.72;;;11.30;100.00
62150;BME280;48134;53.586;10.610;2023-08-30T02:42:16;100146.81;;;11.20;100.00
62150;BME280;48134;53.586;10.610;2023-08-30T02:44:45;100146.28;;;11.18;100.00
62150;BME280;48134;53.586;10.610;2023-08-30T02:47:18;100148.22;;;11.17;100.00
62150;BME280;48134;53.586;10.610;2023-08-30T02:49:47;100140.75;;;11.23;100.00
62150;BME280;48134;53.586;10.610;2023-08-30T02:52:20;100135.63;;;11.21;100.00
62150;BME280;48134;53.586;10.610;2023-08-30T02:54:53;100132.59;;;11.23;100.00
62150;BME280;48134;53.586;10.610;2023-08-30T02:57:26;100138.53;;;11.25;100.00
62150;BME280;48134;53.586;10.610;2023-08-30T03:00:01;100140.47;;;11.25;100.00
62150;BME280;48134;53.586;10.610;2023-08-30T03:02:32;100142.47;;;11.19;100.00
62150;BME280;48134;53.586;10.610;2023-08-30T03:05:06;100143.72;;;11.08;100.00
62150;BME280;48134;53.586;10.610;2023-08-30T03:07:34;100141.28;;;11.06;100.00
62150;BME280;48134;53.586;10.610;2023-08-30T03:10:09;100141.75;;;10.94;100.00
62150;BME280;48134;53.586;10.610;2023-08-30T03:12:37;100140.34;;;10.78;100.00
62150;BME280;48134;53.586;10.610;2023-08-30T03:15:12;100133.94;;;10.87;100.00
62150;BME280;48134;53.586;10.610;2023-08-30T03:17:45;100131.88;;;10.79;100.00
62150;BME280;48134;53.586;10.610;2023-08-30T03:20:18;100131.28;;;10.63;100.00
62150;BME280;48134;53.586;10.610;2023-08-30T03:22:51;100134.09;;;10.58;100.00
62150;BME280;48134;53.586;10.610;2023-08-30T03:25:27;100131.09;;;10.60;100.00
62150;BME280;48134;53.586;10.610;2023-08-30T03:28:01;100127.91;;;10.52;100.00
62150;BME280;48134;53.586;10.610;2023-08-30T03:30:35;100127.25;;;10.42;100.00
62150;BME280;48134;53.586;10.610;2023-08-30T03:33:04;100130.25;;;10.40;100.00
62150;BME280;48134;53.586;10.610;2023-08-30T03:35:33;100121.88;;;10.36;100.00
62150;BME280;48134;53.586;10.610;2023-08-30T03:38:02;100120.25;;;10.54;100.00
62150;BME280;48134;53.586;10.610;2023-08-30T03:40:35;100114.16;;;10.63;100.00
62150;BME280;48134;53.586;10.610;2023-08-30T03:43:08;100113.44;;;10.57;100.00
62150;BME280;48134;53.586;10.610;2023-08-30T03:45:43;100116.75;;;10.54;100.00
62150;BME280;48134;53.586;10.610;2023-08-30T03:48:17;100110.47;;;10.53;100.00
62150;BME280;48134;53.586;10.610;2023-08-30T03:50:46;100107.25;;;10.51;100.00
62150;BME280;48134;53.586;10.610;2023-08-30T03:53:14;100107.19;;;10.57;100.00
62150;BME280;48134;53.586;10.610;2023-08-30T03:55:47;100104.97;;;10.59;100.00
62150;BME280;48134;53.586;10.610;2023-08-30T03:58:20;100095.66;;;10.65;100.00
62150;BME280;48134;53.586;10.610;2023-08-30T04:00:56;100096.31;;;10.57;100.00
62150;BME280;48134;53.586;10.610;2023-08-30T04:03:29;100090.94;;;10.51;100.00
62150;BME280;48134;53.586;10.610;2023-08-30T04:06:03;100081.50;;;10.63;100.00
62150;BME280;48134;53.586;10.610;2023-08-30T04:08:36;100086.44;;;10.61;100.00
62150;BME280;48134;53.586;10.610;2023-08-30T04:11:10;100084.97;;;10.68;100.00
62150;BME280;48134;53.586;10.610;2023-08-30T04:13:45;100078.13;;;10.71;100.00
62150;BME280;48134;53.586;10.610;2023-08-30T04:16:14;100077.63;;;10.69;100.00
62150;BME280;48134;53.586;10.610;2023-08-30T04:18:48;100075.09;;;10.72;100.00
62150;BME280;48134;53.586;10.610;2023-08-30T04:21:16;100077.88;;;10.86;100.00
62150;BME280;48134;53.586;10.610;2023-08-30T04:23:49;100072.00;;;10.98;100.00
62150;BME280;48134;53.586;10.610;2023-08-30T04:26:17;100075.00;;;10.97;100.00
62150;BME280;48134;53.586;10.610;2023-08-30T04:28:45;100071.38;;;11.01;100.00
62150;BME280;48134;53.586;10.610;2023-08-30T04:31:15;100074.41;;;11.00;100.00
62150;BME280;48134;53.586;10.610;2023-08-30T04:33:48;100072.84;;;10.94;100.00
62150;BME280;48134;53.586;10.610;2023-08-30T04:36:21;100067.72;;;10.92;100.00
62150;BME280;48134;53.586;10.610;2023-08-30T04:38:49;100068.91;;;10.86;100.00
62150;BME280;48134;53.586;10.610;2023-08-30T04:41:18;100060.22;;;10.84;100.00
62150;BME280;48134;53.586;10.610;2023-08-30T04:43:47;100065.25;;;10.77;100.00
62150;BME280;48134;53.586;10.610;2023-08-30T04:46:21;100068.19;;;10.80;100.00
62150;BME280;48134;53.586;10.610;2023-08-30T04:48:49;100064.50;;;10.90;100.00
62150;BME280;48134;53.586;10.610;2023-08-30T04:51:23;100067.38;;;10.80;100.00
62150;BME280;48134;53.586;10.610;2023-08-30T04:53:51;100059.84;;;10.91;100.00
62150;BME280;48134;53.586;10.610;2023-08-30T04:56:24;100069.56;;;10.97;100.00
62150;BME280;48134;53.586;10.610;2023-08-30T04:58:53;100062.13;;;11.02;100.00
62150;BME280;48134;53.586;10.610;2023-08-30T05:01:25;100064.91;;;10.97;100.00
62150;BME280;48134;53.586;10.610;2023-08-30T05:04:00;100063.44;;;11.05;100.00
62150;BME280;48134;53.586;10.610;2023-08-30T05:06:33;100061.84;;;11.18;100.00
62150;BME280;48134;53.586;10.610;2023-08-30T05:09:06;100057.16;;;11.37;100.00
62150;BME280;48134;53.586;10.610;2023-08-30T05:11:40;100061.41;;;11.57;100.00
62150;BME280;48134;53.586;10.610;2023-08-30T05:14:08;100060.41;;;11.67;100.00
62150;BME280;48134;53.586;10.610;2023-08-30T05:16:41;100051.41;;;11.67;100.00
62150;BME280;48134;53.586;10.610;2023-08-30T05:19:14;100054.03;;;11.72;100.00
62150;BME280;48134;53.586;10.610;2023-08-30T05:21:44;100052.22;;;11.81;100.00
62150;BME280;48134;53.586;10.610;2023-08-30T05:24:17;100058.78;;;11.80;100.00
62150;BME280;48134;53.586;10.610;2023-08-30T05:26:51;100058.28;;;11.92;100.00
62150;BME280;48134;53.586;10.610;2023-08-30T05:29:19;100049.59;;;12.04;100.00
62150;BME280;48134;53.586;10.610;2023-08-30T05:31:54;100060.81;;;12.02;100.00
62150;BME280;48134;53.586;10.610;2023-08-30T05:34:45;100072.13;;;11.82;100.00
62150;BME280;48134;53.586;10.610;2023-08-30T05:37:34;100075.22;;;11.89;100.00
62150;BME280;48134;53.586;10.610;2023-08-30T05:40:28;100067.81;;;11.95;100.00
62150;BME280;48134;53.586;10.610;2023-08-30T05:42:56;100070.72;;;11.98;100.00
62150;BME280;48134;53.586;10.610;2023-08-30T05:45:29;100065.78;;;12.00;100.00
62150;BME280;48134;53.586;10.610;2023-08-30T05:48:05;100066.38;;;12.11;100.00
62150;BME280;48134;53.586;10.610;2023-08-30T05:50:34;100065.06;;;12.22;100.00
62150;BME280;48134;53.586;10.610;2023-08-30T05:53:07;100064.63;;;12.29;100.00
62150;BME280;48134;53.586;10.610;2023-08-30T05:55:35;100059.16;;;12.43;100.00
62150;BME280;48134;53.586;10.610;2023-08-30T05:58:05;100064.75;;;12.61;100.00
62150;BME280;48134;53.586;10.610;2023-08-30T06:00:33;100062.16;;;12.55;100.00
62150;BME280;48134;53.586;10.610;2023-08-30T06:03:02;100059.78;;;12.63;100.00
62150;BME280;48134;53.586;10.610;2023-08-30T06:05:32;100059.84;;;12.71;100.00
62150;BME280;48134;53.586;10.610;2023-08-30T06:08:01;100064.88;;;12.78;100.00
62150;BME280;48134;53.586;10.610;2023-08-30T06:10:35;100061.53;;;12.81;100.00
62150;BME280;48134;53.586;10.610;2023-08-30T06:13:04;100067.50;;;12.83;100.00
62150;BME280;48134;53.586;10.610;2023-08-30T06:15:37;100067.34;;;12.88;100.00
62150;BME280;48134;53.586;10.610;2023-08-30T06:18:06;100055.56;;;13.02;100.00
62150;BME280;48134;53.586;10.610;2023-08-30T06:20:40;100052.91;;;13.10;100.00
62150;BME280;48134;53.586;10.610;2023-08-30T06:23:14;100046.13;;;13.08;100.00
62150;BME280;48134;53.586;10.610;2023-08-30T06:25:53;100047.84;;;13.26;100.00
62150;BME280;48134;53.586;10.610;2023-08-30T06:28:21;100048.19;;;13.34;100.00
62150;BME280;48134;53.586;10.610;2023-08-30T06:30:55;100046.22;;;13.48;100.00
62150;BME280;48134;53.586;10.610;2023-08-30T06:33:24;100049.81;;;13.66;100.00
62150;BME280;48134;53.586;10.610;2023-08-30T06:35:58;100038.78;;;13.80;100.00
62150;BME280;48134;53.586;10.610;2023-08-30T06:38:32;100036.47;;;13.65;100.00
62150;BME280;48134;53.586;10.610;2023-08-30T06:41:00;100029.59;;;13.85;100.00
62150;BME280;48134;53.586;10.610;2023-08-30T06:43:33;100045.53;;;13.83;100.00
62150;BME280;48134;53.586;10.610;2023-08-30T06:46:06;100037.16;;;13.88;100.00
62150;BME280;48134;53.586;10.610;2023-08-30T06:48:40;100033.81;;;13.91;100.00
62150;BME280;48134;53.586;10.610;2023-08-30T06:51:09;100035.91;;;13.94;100.00
62150;BME280;48134;53.586;10.610;2023-08-30T06:53:42;100037.41;;;14.09;100.00
62150;BME280;48134;53.586;10.610;2023-08-30T06:56:11;100034.50;;;14.14;100.00
62150;BME280;48134;53.586;10.610;2023-08-30T06:58:39;100042.06;;;14.26;100.00
62150;BME280;48134;53.586;10.610;2023-08-30T07:01:07;100043.38;;;14.20;100.00
62150;BME280;48134;53.586;10.610;2023-08-30T07:03:36;100044.34;;;14.33;100.00
62150;BME280;48134;53.586;10.610;2023-08-30T07:06:04;100031.94;;;14.35;100.00
62150;BME280;48134;53.586;10.610;2023-08-30T07:08:38;100015.84;;;14.51;100.00
62150;BME280;48134;53.586;10.610;2023-08-30T07:11:06;100018.25;;;14.53;100.00
62150;BME280;48134;53.586;10.610;2023-08-30T07:13:40;100020.38;;;14.65;100.00
62150;BME280;48134;53.586;10.610;2023-08-30T07:16:13;100021.31;;;14.77;100.00
62150;BME280;48134;53.586;10.610;2023-08-30T07:18:47;100025.22;;;14.76;100.00
62150;BME280;48134;53.586;10.610;2023-08-30T07:21:20;100024.38;;;14.76;100.00
62150;BME280;48134;53.586;10.610;2023-08-30T07:23:54;100016.50;;;14.74;100.00
62150;BME280;48134;53.586;10.610;2023-08-30T07:26:23;100030.03;;;14.79;100.00
62150;BME280;48134;53.586;10.610;2023-08-30T07:28:56;100027.47;;;14.83;100.00
62150;BME280;48134;53.586;10.610;2023-08-30T07:31:29;100014.84;;;15.00;100.00
62150;BME280;48134;53.586;10.610;2023-08-30T07:34:02;100013.25;;;14.99;100.00
62150;BME280;48134;53.586;10.610;2023-08-30T07:36:35;100017.59;;;14.91;100.00
62150;BME280;48134;53.586;10.610;2023-08-30T07:39:05;100021.47;;;14.99;100.00
62150;BME280;48134;53.586;10.610;2023-08-30T07:41:34;100018.06;;;15.02;100.00
62150;BME280;48134;53.586;10.610;2023-08-30T07:44:02;100019.66;;;15.11;100.00
62150;BME280;48134;53.586;10.610;2023-08-30T07:46:35;100022.22;;;15.17;100.00
62150;BME280;48134;53.586;10.610;2023-08-30T07:49:03;100024.31;;;15.20;100.00
62150;BME280;48134;53.586;10.610;2023-08-30T07:51:36;100021.72;;;15.23;100.00
62150;BME280;48134;53.586;10.610;2023-08-30T07:54:11;100025.38;;;15.36;100.00
62150;BME280;48134;53.586;10.610;2023-08-30T07:56:39;100026.00;;;15.42;100.00
62150;BME280;48134;53.586;10.610;2023-08-30T07:59:07;100028.91;;;15.37;100.00
62150;BME280;48134;53.586;10.610;2023-08-30T08:01:36;100024.44;;;15.32;100.00
62150;BME280;48134;53.586;10.610;2023-08-30T08:04:05;100025.66;;;15.43;100.00
62150;BME280;48134;53.586;10.610;2023-08-30T08:06:33;100027.44;;;15.48;100.00
62150;BME280;48134;53.586;10.610;2023-08-30T08:09:02;100020.16;;;15.52;100.00
62150;BME280;48134;53.586;10.610;2023-08-30T08:11:34;100029.16;;;15.61;100.00
62150;BME280;48134;53.586;10.610;2023-08-30T08:14:07;100028.78;;;15.72;100.00
62150;BME280;48134;53.586;10.610;2023-08-30T08:16:35;100033.47;;;15.80;100.00
62150;BME280;48134;53.586;10.610;2023-08-30T08:19:05;100043.19;;;15.98;100.00
62150;BME280;48134;53.586;10.610;2023-08-30T08:21:34;100037.38;;;16.00;100.00
62150;BME280;48134;53.586;10.610;2023-08-30T08:24:07;100033.00;;;15.99;100.00
62150;BME280;48134;53.586;10.610;2023-08-30T08:26:42;100032.22;;;15.98;100.00
62150;BME280;48134;53.586;10.610;2023-08-30T08:29:10;100033.94;;;16.03;100.00
62150;BME280;48134;53.586;10.610;2023-08-30T08:31:43;100028.94;;;16.05;100.00
62150;BME280;48134;53.586;10.610;2023-08-30T08:34:12;100035.84;;;16.11;100.00
62150;BME280;48134;53.586;10.610;2023-08-30T08:36:45;100035.91;;;16.24;100.00
62150;BME280;48134;53.586;10.610;2023-08-30T08:39:18;100031.50;;;16.31;100.00
62150;BME280;48134;53.586;10.610;2023-08-30T08:41:53;100035.88;;;16.32;100.00
62150;BME280;48134;53.586;10.610;2023-08-30T08:44:22;100033.03;;;16.41;100.00
62150;BME280;48134;53.586;10.610;2023-08-30T08:46:59;100037.53;;;16.46;100.00
62150;BME280;48134;53.586;10.610;2023-08-30T08:49:33;100041.44;;;16.45;100.00
62150;BME280;48134;53.586;10.610;2023-08-30T08:52:06;100037.00;;;16.53;100.00
62150;BME280;48134;53.586;10.610;2023-08-30T08:54:34;100039.69;;;16.61;100.00
62150;BME280;48134;53.586;10.610;2023-08-30T08:57:06;100034.03;;;16.58;100.00
62150;BME280;48134;53.586;10.610;2023-08-30T08:59:35;100041.75;;;16.64;100.00
62150;BME280;48134;53.586;10.610;2023-08-30T09:02:10;100035.56;;;16.67;100.00
62150;BME280;48134;53.586;10.610;2023-08-30T09:04:40;100035.03;;;16.74;100.00
62150;BME280;48134;53.586;10.610;2023-08-30T09:07:09;100024.09;;;16.87;100.00
62150;BME280;48134;53.586;10.610;2023-08-30T09:09:43;100032.16;;;16.92;100.00
62150;BME280;48134;53.586;10.610;2023-08-30T09:12:17;100031.41;;;17.16;100.00
62150;BME280;48134;53.586;10.610;2023-08-30T09:14:53;100036.31;;;17.10;100.00
62150;BME280;48134;53.586;10.610;2023-08-30T09:17:35;100031.63;;;17.11;100.00
62150;BME280;48134;53.586;10.610;2023-08-30T09:20:11;100034.66;;;17.30;100.00
62150;BME280;48134;53.586;10.610;2023-08-30T09:22:40;100029.41;;;17.50;100.00
62150;BME280;48134;53.586;10.610;2023-08-30T09:25:24;100026.66;;;17.38;100.00
62150;BME280;48134;53.586;10.610;2023-08-30T09:27:58;100021.84;;;17.59;100.00
62150;BME280;48134;53.586;10.610;2023-08-30T09:30:27;100021.84;;;17.72;100.00
62150;BME280;48134;53.586;10.610;2023-08-30T09:33:00;100024.59;;;17.72;100.00
62150;BME280;48134;53.586;10.610;2023-08-30T09:35:29;100017.94;;;18.10;100.00
62150;BME280;48134;53.586;10.610;2023-08-30T09:37:57;100017.25;;;17.88;100.00
62150;BME280;48134;53.586;10.610;2023-08-30T09:40:30;100012.91;;;17.87;100.00
62150;BME280;48134;53.586;10.610;2023-08-30T09:43:07;100007.41;;;17.87;100.00
62150;BME280;48134;53.586;10.610;2023-08-30T09:45:40;100010.16;;;17.87;100.00
62150;BME280;48134;53.586;10.610;2023-08-30T09:48:09;100009.56;;;17.81;100.00
62150;BME280;48134;53.586;10.610;2023-08-30T09:50:44;100010.25;;;17.78;100.00
62150;BME280;48134;53.586;10.610;2023-08-30T09:53:15;100014.50;;;17.76;100.00
62150;BME280;48134;53.586;10.610;2023-08-30T09:55:51;100005.91;;;17.65;100.00
62150;BME280;48134;53.586;10.610;2023-08-30T09:58:26;100007.28;;;17.83;100.00
62150;BME280;48134;53.586;10.610;2023-08-30T10:00:56;100003.81;;;17.87;100.00
62150;BME280;48134;53.586;10.610;2023-08-30T10:03:30;99999.72;;;17.93;100.00
62150;BME280;48134;53.586;10.610;2023-08-30T10:05:59;99997.91;;;17.97;100.00
62150;BME280;48134;53.586;10.610;2023-08-30T10:08:30;99999.38;;;17.94;100.00
62150;BME280;48134;53.586;10.610;2023-08-30T10:10:59;99993.06;;;17.94;100.00
62150;BME280;48134;53.586;10.610;2023-08-30T10:13:30;99997.53;;;17.86;100.00
62150;BME280;48134;53.586;10.610;2023-08-30T10:16:01;99994.31;;;17.96;100.00
62150;BME280;48134;53.586;10.610;2023-08-30T10:18:38;99996.63;;;17.94;100.00
62150;BME280;48134;53.586;10.610;2023-08-30T10:21:12;99989.84;;;18.04;100.00
62150;BME280;48134;53.586;10.610;2023-08-30T10:23:47;99981.41;;;18.25;100.00
62150;BME280;48134;53.586;10.610;2023-08-30T10:26:17;99983.81;;;18.27;100.00
62150;BME280;48134;53.586;10.610;2023-08-30T10:28:53;99985.41;;;18.28;100.00
62150;BME280;48134;53.586;10.610;2023-08-30T10:31:27;99982.31;;;18.29;100.00
62150;BME280;48134;53.586;10.610;2023-08-30T10:34:01;99985.19;;;18.33;100.00
62150;BME280;48134;53.586;10.610;2023-08-30T10:36:34;99982.63;;;18.40;100.00
62150;BME280;48134;53.586;10.610;2023-08-30T10:39:11;99988.50;;;18.39;100.00
62150;BME280;48134;53.586;10.610;2023-08-30T10:41:54;99986.44;;;18.35;100.00
62150;BME280;48134;53.586;10.610;2023-08-30T10:44:24;99994.25;;;18.33;100.00
62150;BME280;48134;53.586;10.610;2023-08-30T10:46:53;99991.34;;;18.42;100.00
62150;BME280;48134;53.586;10.610;2023-08-30T10:49:27;99987.47;;;18.31;100.00
62150;BME280;48134;53.586;10.610;2023-08-30T10:51:56;99989.88;;;18.32;100.00
62150;BME280;48134;53.586;10.610;2023-08-30T10:54:37;99994.72;;;18.35;100.00
62150;BME280;48134;53.586;10.610;2023-08-30T10:57:14;99990.22;;;18.31;100.00
62150;BME280;48134;53.586;10.610;2023-08-30T11:00:03;99987.94;;;18.33;100.00
62150;BME280;48134;53.586;10.610;2023-08-30T11:02:37;99992.59;;;18.45;100.00
62150;BME280;48134;53.586;10.610;2023-08-30T11:05:11;99996.69;;;18.10;100.00
62150;BME280;48134;53.586;10.610;2023-08-30T11:07:39;99989.00;;;18.16;100.00
62150;BME280;48134;53.586;10.610;2023-08-30T11:10:08;99984.16;;;18.25;100.00
62150;BME280;48134;53.586;10.610;2023-08-30T11:12:41;99980.50;;;18.21;100.00
62150;BME280;48134;53.586;10.610;2023-08-30T11:15:16;99984.59;;;18.40;100.00
62150;BME280;48134;53.586;10.610;2023-08-30T11:17:49;99987.03;;;18.57;100.00
62150;BME280;48134;53.586;10.610;2023-08-30T11:20:18;99974.19;;;18.49;100.00
62150;BME280;48134;53.586;10.610;2023-08-30T11:22:48;99984.00;;;18.46;100.00
62150;BME280;48134;53.586;10.610;2023-08-30T11:25:21;99985.97;;;18.33;100.00
62150;BME280;48134;53.586;10.610;2023-08-30T11:28:01;99983.81;;;18.27;100.00
62150;BME280;48134;53.586;10.610;2023-08-30T11:30:31;99977.66;;;18.17;100.00
62150;BME280;48134;53.586;10.610;2023-08-30T11:33:00;99974.00;;;18.13;100.00
62150;BME280;48134;53.586;10.610;2023-08-30T11:35:33;99969.84;;;18.19;100.00
62150;BME280;48134;53.586;10.610;2023-08-30T11:38:01;99971.44;;;18.21;100.00
62150;BME280;48134;53.586;10.610;2023-08-30T11:40:34;99977.97;;;18.57;100.00
62150;BME280;48134;53.586;10.610;2023-08-30T11:43:08;99973.06;;;18.50;100.00
62150;BME280;48134;53.586;10.610;2023-08-30T11:45:42;99967.91;;;18.48;100.00
62150;BME280;48134;53.586;10.610;2023-08-30T11:48:11;99969.53;;;18.65;100.00
62150;BME280;48134;53.586;10.610;2023-08-30T11:50:44;99966.44;;;18.67;100.00
62150;BME280;48134;53.586;10.610;2023-08-30T11:53:13;99968.34;;;18.79;100.00
62150;BME280;48134;53.586;10.610;2023-08-30T11:55:42;99969.53;;;18.65;100.00
62150;BME280;48134;53.586;10.610;2023-08-30T11:58:10;99962.16;;;18.69;100.00
62150;BME280;48134;53.586;10.610;2023-08-30T12:00:45;99955.31;;;18.63;100.00
62150;BME280;48134;53.586;10.610;2023-08-30T12:03:13;99952.03;;;18.58;100.00
62150;BME280;48134;53.586;10.610;2023-08-30T12:05:48;99945.34;;;18.59;100.00
62150;BME280;48134;53.586;10.610;2023-08-30T12:08:20;99949.88;;;18.67;100.00
62150;BME280;48134;53.586;10.610;2023-08-30T12:10:48;99950.16;;;18.62;100.00
62150;BME280;48134;53.586;10.610;2023-08-30T12:13:23;99959.13;;;18.59;100.00
62150;BME280;48134;53.586;10.610;2023-08-30T12:15:59;99954.66;;;18.54;100.00
62150;BME280;48134;53.586;10.610;2023-08-30T12:18:29;99955.88;;;18.41;100.00
62150;BME280;48134;53.586;10.610;2023-08-30T12:21:01;99956.03;;;18.32;100.00
62150;BME280;48134;53.586;10.610;2023-08-30T12:23:34;99958.22;;;18.26;100.00
62150;BME280;48134;53.586;10.610;2023-08-30T12:26:04;99961.38;;;18.12;100.00
62150;BME280;48134;53.586;10.610;2023-08-30T12:28:39;99958.50;;;18.09;100.00
62150;BME280;48134;53.586;10.610;2023-08-30T12:31:14;99958.66;;;18.00;100.00
62150;BME280;48134;53.586;10.610;2023-08-30T12:33:47;99953.91;;;18.13;100.00
62150;BME280;48134;53.586;10.610;2023-08-30T12:36:20;99955.50;;;18.14;100.00
62150;BME280;48134;53.586;10.610;2023-08-30T12:38:48;99947.00;;;18.19;100.00
62150;BME280;48134;53.586;10.610;2023-08-30T12:41:22;99954.25;;;18.11;100.00
62150;BME280;48134;53.586;10.610;2023-08-30T12:43:55;99949.09;;;18.10;100.00
62150;BME280;48134;53.586;10.610;2023-08-30T12:46:29;99956.94;;;18.08;100.00
62150;BME280;48134;53.586;10.610;2023-08-30T12:48:57;99947.81;;;18.19;100.00
62150;BME280;48134;53.586;10.610;2023-08-30T12:51:31;99940.06;;;18.38;100.00
62150;BME280;48134;53.586;10.610;2023-08-30T12:53:59;99940.09;;;18.53;100.00
62150;BME280;48134;53.586;10.610;2023-08-30T12:56:27;99943.84;;;18.61;100.00
62150;BME280;48134;53.586;10.610;2023-08-30T12:58:55;99934.97;;;18.68;100.00